createdAt,value
2023-03-04T00:02:37.440Z,20.55
2023-03-04T00:05:16.900Z,21.12
2023-03-04T00:07:55.908Z,21.01
2023-03-04T00:10:35.594Z,21.76
2023-03-04T00:13:22.259Z,22.25
2023-03-04T00:16:01.363Z,22.14
2023-03-04T00:18:40.578Z,22.50
2023-03-04T00:21:19.609Z,22.30
2023-03-04T00:23:58.996Z,21.27
2023-03-04T00:26:38.076Z,21.06
2023-03-04T00:29:23.036Z,22.32
2023-03-04T00:32:02.194Z,21.00
2023-03-04T00:34:41.631Z,20.34
2023-03-04T00:37:20.831Z,19.01
2023-03-04T00:39:59.857Z,18.10
2023-03-04T00:42:39.041Z,19.26
2023-03-04T00:45:23.356Z,19.51
2023-03-04T00:48:02.383Z,18.29
2023-03-04T00:50:41.451Z,18.34
2023-03-04T00:53:20.478Z,18.16
2023-03-04T00:55:59.559Z,19.16
2023-03-04T00:58:38.816Z,20.85
2023-03-04T01:01:23.003Z,19.99
2023-03-04T01:04:02.162Z,20.75
2023-03-04T01:06:41.170Z,20.92
2023-03-04T01:09:20.254Z,21.73
2023-03-04T01:11:59.434Z,23.10
2023-03-04T01:14:38.549Z,23.35
2023-03-04T01:17:22.656Z,22.57
2023-03-04T01:20:01.743Z,23.35
2023-03-04T01:22:40.858Z,23.48
2023-03-04T01:25:20.358Z,23.52
2023-03-04T01:27:59.397Z,23.51
2023-03-04T01:30:38.507Z,24.45
2023-03-04T01:33:23.001Z,25.08
2023-03-04T01:36:02.030Z,26.15
2023-03-04T01:38:41.066Z,25.88
2023-03-04T01:41:23.135Z,25.52
2023-03-04T01:44:04.660Z,26.17
2023-03-04T01:46:45.333Z,25.90
2023-03-04T01:49:30.226Z,27.22
2023-03-04T01:52:09.300Z,26.03
2023-03-04T01:54:48.954Z,27.06
2023-03-04T01:57:30.168Z,27.95
2023-03-04T02:00:34.843Z,28.22
2023-03-04T02:03:17.476Z,27.48
2023-03-04T02:06:03.205Z,27.71
2023-03-04T02:08:42.966Z,28.53
2023-03-04T02:11:22.046Z,27.81
2023-03-04T02:14:01.165Z,27.98
2023-03-04T02:16:41.056Z,27.28
2023-03-04T02:19:30.413Z,28.20
2023-03-04T02:22:14.622Z,27.56
2023-03-04T02:24:59.788Z,28.31
2023-03-04T02:27:43.935Z,28.00
2023-03-04T02:30:26.321Z,27.28
2023-03-04T02:33:05.504Z,26.32
2023-03-04T02:35:44.659Z,23.12
2023-03-04T02:38:23.751Z,24.23
2023-03-04T02:41:05.210Z,24.12
2023-03-04T02:43:51.030Z,24.12
2023-03-04T02:46:30.999Z,25.10
2023-03-04T02:49:10.242Z,25.37
2023-03-04T02:51:50.679Z,26.47
2023-03-04T02:54:31.921Z,27.85
2023-03-04T02:57:13.312Z,29.53
2023-03-04T02:59:57.395Z,28.26
2023-03-04T03:02:36.634Z,28.17
2023-03-04T03:05:16.086Z,26.17
2023-03-04T03:07:55.294Z,26.25
2023-03-04T03:10:34.673Z,25.56
2023-03-04T03:13:13.761Z,40.87
2023-03-04T03:15:58.015Z,99.73
2023-03-04T03:18:46.898Z,65.46
2023-03-04T03:21:26.415Z,31.16
2023-03-04T03:24:05.447Z,25.06
2023-03-04T03:26:44.669Z,24.93
2023-03-04T03:29:23.711Z,24.55
2023-03-04T03:32:07.971Z,24.34
2023-03-04T03:34:47.053Z,24.29
2023-03-04T03:37:26.267Z,25.95
2023-03-04T03:40:05.300Z,25.88
2023-03-04T03:42:44.362Z,26.04
2023-03-04T03:45:23.635Z,25.80
2023-03-04T03:48:07.797Z,26.41
2023-03-04T03:50:46.853Z,26.54
2023-03-04T03:53:25.918Z,25.90
2023-03-04T03:56:05.178Z,25.53
2023-03-04T03:58:44.277Z,25.19
2023-03-04T04:01:23.304Z,25.59
2023-03-04T04:04:07.515Z,26.16
2023-03-04T04:06:46.581Z,25.51
2023-03-04T04:09:25.699Z,25.85
2023-03-04T04:12:04.874Z,25.31
2023-03-04T04:14:43.950Z,25.98
2023-03-04T04:17:23.209Z,25.78
2023-03-04T04:20:07.393Z,26.02
2023-03-04T04:22:46.481Z,26.45
2023-03-04T04:25:25.523Z,26.51
2023-03-04T04:28:04.727Z,25.90
2023-03-04T04:30:44.159Z,26.44
2023-03-04T04:33:23.704Z,26.70
2023-03-04T04:36:07.843Z,26.61
2023-03-04T04:38:47.096Z,26.31
2023-03-04T04:41:29.649Z,26.95
2023-03-04T04:44:08.713Z,26.99
2023-03-04T04:46:47.975Z,27.39
2023-03-04T04:49:27.365Z,27.72
2023-03-04T04:52:12.038Z,27.06
2023-03-04T04:54:51.147Z,26.83
2023-03-04T04:57:30.235Z,27.34
2023-03-04T05:00:11.175Z,27.27
2023-03-04T05:02:50.454Z,28.06
2023-03-04T05:05:29.590Z,28.39
2023-03-04T05:08:13.749Z,30.98
2023-03-04T05:10:52.793Z,30.00
2023-03-04T05:13:32.018Z,28.99
2023-03-04T05:16:11.918Z,28.13
2023-03-04T05:18:51.206Z,29.94
2023-03-04T05:21:32.092Z,29.58
2023-03-04T05:24:16.298Z,28.32
2023-03-04T05:26:55.557Z,28.65
2023-03-04T05:29:34.722Z,29.47
2023-03-04T05:32:13.833Z,29.28
2023-03-04T05:34:52.938Z,28.77
2023-03-04T05:37:32.043Z,29.74
2023-03-04T05:40:17.820Z,29.48
2023-03-04T05:42:57.750Z,29.00
2023-03-04T05:45:37.128Z,28.99
2023-03-04T05:48:16.742Z,28.83
2023-03-04T05:51:01.069Z,30.04
2023-03-04T05:53:41.132Z,30.15
2023-03-04T05:56:27.390Z,29.87
2023-03-04T05:59:07.202Z,29.62
2023-03-04T06:01:46.345Z,31.43
2023-03-04T06:04:25.449Z,30.82
2023-03-04T06:07:04.628Z,30.80
2023-03-04T06:09:46.084Z,31.05
2023-03-04T06:12:30.924Z,31.75
2023-03-04T06:15:11.241Z,31.06
2023-03-04T06:17:50.341Z,32.30
2023-03-04T06:20:29.403Z,34.10
2023-03-04T06:23:08.551Z,31.16
2023-03-04T06:25:47.887Z,30.64
2023-03-04T06:28:32.542Z,32.39
2023-03-04T06:31:11.978Z,31.74
2023-03-04T06:33:51.015Z,31.35
2023-03-04T06:36:30.084Z,32.93
2023-03-04T06:39:11.052Z,32.21
2023-03-04T06:41:50.426Z,46.93
2023-03-04T06:44:34.600Z,36.10
2023-03-04T06:47:14.317Z,49.14
2023-03-04T06:49:53.647Z,45.22
2023-03-04T06:52:32.746Z,31.93
2023-03-04T06:55:14.040Z,31.52
2023-03-04T06:57:53.163Z,31.15
2023-03-04T07:00:37.554Z,31.44
2023-03-04T07:03:18.540Z,32.67
2023-03-04T07:05:57.621Z,35.94
2023-03-04T07:08:36.800Z,34.12
2023-03-04T07:11:16.466Z,32.16
2023-03-04T07:13:56.509Z,31.34
2023-03-04T07:16:40.771Z,31.81
2023-03-04T07:19:19.923Z,31.22
2023-03-04T07:21:58.963Z,34.80
2023-03-04T07:24:38.084Z,32.43
2023-03-04T07:27:17.286Z,36.44
2023-03-04T07:29:56.414Z,36.73
2023-03-04T07:32:40.712Z,35.21
2023-03-04T07:35:20.177Z,49.97
2023-03-04T07:37:59.223Z,33.91
2023-03-04T07:40:38.364Z,33.06
2023-03-04T07:43:20.153Z,32.10
2023-03-04T07:45:59.349Z,30.54
2023-03-04T07:48:43.939Z,35.48
2023-03-04T07:51:25.335Z,33.82
2023-03-04T07:54:06.311Z,32.47
2023-03-04T07:56:45.443Z,31.19
2023-03-04T07:59:24.509Z,30.21
2023-03-04T08:02:03.612Z,30.77
2023-03-04T08:04:47.768Z,30.73
2023-03-04T08:07:26.814Z,30.92
2023-03-04T08:10:05.860Z,32.54
2023-03-04T08:12:44.910Z,31.08
2023-03-04T08:15:24.015Z,31.55
2023-03-04T08:18:03.078Z,33.65
2023-03-04T08:20:49.248Z,34.90
2023-03-04T08:23:28.447Z,34.62
2023-03-04T08:26:07.517Z,34.09
2023-03-04T08:28:47.132Z,34.70
2023-03-04T08:31:27.174Z,32.41
2023-03-04T08:34:06.588Z,34.38
2023-03-04T08:36:51.336Z,35.57
2023-03-04T08:39:30.397Z,34.95
2023-03-04T08:42:09.647Z,33.72
2023-03-04T08:44:48.792Z,34.58
2023-03-04T08:47:27.818Z,35.43
2023-03-04T08:50:06.948Z,36.63
2023-03-04T08:52:51.089Z,38.90
2023-03-04T08:55:30.227Z,33.73
2023-03-04T08:58:09.264Z,33.02
2023-03-04T09:00:52.868Z,33.03
2023-03-04T09:03:31.952Z,33.35
2023-03-04T09:06:12.942Z,33.25
2023-03-04T09:08:57.265Z,34.61
2023-03-04T09:11:36.686Z,33.46
2023-03-04T09:14:15.761Z,32.78
2023-03-04T09:16:54.887Z,33.92
2023-03-04T09:19:33.946Z,33.43
2023-03-04T09:22:12.973Z,33.39
2023-03-04T09:24:57.090Z,33.21
2023-03-04T09:27:36.374Z,33.17
2023-03-04T09:30:17.119Z,35.02
2023-03-04T09:32:56.350Z,33.72
2023-03-04T09:35:36.114Z,33.89
2023-03-04T09:38:15.645Z,33.13
2023-03-04T09:40:59.881Z,33.27
2023-03-04T09:43:41.775Z,31.51
2023-03-04T09:46:25.649Z,32.94
2023-03-04T09:49:07.265Z,32.47
2023-03-04T09:51:57.667Z,32.49
2023-03-04T09:54:56.392Z,32.83
2023-03-04T09:57:53.996Z,35.87
2023-03-04T10:00:42.064Z,35.96
2023-03-04T10:03:27.153Z,31.82
2023-03-04T10:06:11.761Z,32.91
2023-03-04T10:08:57.802Z,34.54
2023-03-04T10:11:42.484Z,31.61
2023-03-04T10:14:42.302Z,29.49
2023-03-04T10:17:28.036Z,30.72
2023-03-04T10:20:13.103Z,30.35
2023-03-04T10:22:54.435Z,30.79
2023-03-04T10:25:36.603Z,29.15
2023-03-04T10:28:23.588Z,29.19
2023-03-04T10:31:16.957Z,29.39
2023-03-04T10:33:57.104Z,29.93
2023-03-04T10:36:54.839Z,28.44
2023-03-04T10:39:36.752Z,27.13
2023-03-04T10:42:38.286Z,28.42
2023-03-04T10:45:31.687Z,27.84
2023-03-04T10:48:26.631Z,28.43
2023-03-04T10:51:21.057Z,28.01
2023-03-04T10:54:05.779Z,26.86
2023-03-04T10:56:47.968Z,27.40
2023-03-04T10:59:51.589Z,28.08
2023-03-04T11:02:33.101Z,26.80
2023-03-04T11:05:25.680Z,28.94
2023-03-04T11:08:07.702Z,30.20
2023-03-04T11:10:48.423Z,27.53
2023-03-04T11:13:31.189Z,24.92
2023-03-04T11:16:12.979Z,25.91
2023-03-04T11:18:58.556Z,25.52
2023-03-04T11:21:49.278Z,25.12
2023-03-04T11:24:33.357Z,26.44
2023-03-04T11:27:19.134Z,25.47
2023-03-04T11:30:03.939Z,25.14
2023-03-04T11:32:48.733Z,25.41
2023-03-04T11:35:34.248Z,26.86
2023-03-04T11:38:27.260Z,23.82
2023-03-04T11:41:11.924Z,23.85
2023-03-04T11:43:53.973Z,23.48
2023-03-04T11:46:56.938Z,23.27
2023-03-04T11:49:59.096Z,25.58
2023-03-04T11:53:01.519Z,23.75
2023-03-04T11:55:52.249Z,22.38
2023-03-04T11:58:51.786Z,21.86
2023-03-04T12:01:39.479Z,21.10
2023-03-04T12:04:38.212Z,22.37
2023-03-04T12:07:35.998Z,22.22
2023-03-04T12:10:31.264Z,17.17
2023-03-04T12:13:49.207Z,19.28
2023-03-04T12:16:40.604Z,24.59
2023-03-04T12:19:35.500Z,22.18
2023-03-04T12:22:31.371Z,18.54
2023-03-04T12:25:49.070Z,17.66
2023-03-04T12:28:53.208Z,20.63
2023-03-04T12:31:43.992Z,21.48
2023-03-04T12:34:47.211Z,19.96
2023-03-04T12:37:42.254Z,23.47
2023-03-04T12:40:35.785Z,20.29
2023-03-04T12:43:31.145Z,21.22
2023-03-04T12:46:26.094Z,23.17
2023-03-04T12:49:36.552Z,17.79
2023-03-04T12:52:26.495Z,22.67
2023-03-04T12:55:10.382Z,20.08
2023-03-04T12:57:50.483Z,21.70
2023-03-04T13:00:46.840Z,21.21
2023-03-04T13:03:44.431Z,35.13
2023-03-04T13:06:38.286Z,115.17
2023-03-04T13:09:26.907Z,22.82
2023-03-04T13:12:22.678Z,19.31
2023-03-04T13:15:42.341Z,22.27
2023-03-04T13:18:48.045Z,17.12
2023-03-04T13:21:32.639Z,18.34
2023-03-04T13:24:42.071Z,21.28
2023-03-04T13:27:51.443Z,24.65
2023-03-04T13:30:50.750Z,23.50
2023-03-04T13:33:58.435Z,17.18
2023-03-04T13:36:58.966Z,20.39
2023-03-04T13:39:40.400Z,19.68
2023-03-04T13:42:48.287Z,19.88
2023-03-04T13:45:40.304Z,19.32
2023-03-04T13:48:33.773Z,28.55
2023-03-04T13:51:31.397Z,23.69
2023-03-04T13:54:22.462Z,23.81
2023-03-04T13:57:24.542Z,23.82
2023-03-04T14:00:06.476Z,22.55
2023-03-04T14:02:45.565Z,21.48
2023-03-04T14:05:24.710Z,23.02
2023-03-04T14:08:24.777Z,24.82
2023-03-04T14:11:04.721Z,21.99
2023-03-04T14:13:45.349Z,21.63
2023-03-04T14:16:28.009Z,25.67
2023-03-04T14:19:09.776Z,32.57
2023-03-04T14:21:52.261Z,30.36
2023-03-04T14:24:36.504Z,25.09
2023-03-04T14:27:19.923Z,26.30
2023-03-04T14:30:03.799Z,22.11
2023-03-04T14:32:43.147Z,21.14
2023-03-04T14:35:30.453Z,21.03
2023-03-04T14:38:12.212Z,20.89
2023-03-04T14:41:01.043Z,21.44
2023-03-04T14:43:47.984Z,20.17
2023-03-04T14:46:32.006Z,20.50
2023-03-04T14:49:11.380Z,19.24
2023-03-04T14:51:56.233Z,21.40
2023-03-04T14:54:41.651Z,21.19
2023-03-04T14:57:40.722Z,20.74
2023-03-04T15:00:31.777Z,22.33
2023-03-04T15:03:24.207Z,18.91
2023-03-04T15:06:03.628Z,19.19
2023-03-04T15:08:45.531Z,19.84
2023-03-04T15:11:30.690Z,19.13
2023-03-04T15:14:48.152Z,19.57
2023-03-04T15:17:32.539Z,19.10
2023-03-04T15:20:31.912Z,19.04
2023-03-04T15:23:16.215Z,20.15
2023-03-04T15:25:59.722Z,19.94
2023-03-04T15:28:42.837Z,19.64
2023-03-04T15:31:30.344Z,18.95
2023-03-04T15:34:09.432Z,19.25
2023-03-04T15:36:51.051Z,19.30
2023-03-04T15:39:30.144Z,20.59
2023-03-04T15:42:09.219Z,19.28
2023-03-04T15:44:48.300Z,19.06
2023-03-04T15:47:32.566Z,19.02
2023-03-04T15:50:12.601Z,20.39
2023-03-04T15:52:52.313Z,18.96
2023-03-04T15:55:31.878Z,19.28
2023-03-04T15:58:11.185Z,19.43
2023-03-04T16:00:50.524Z,18.71
2023-03-04T16:03:34.648Z,16.97
2023-03-04T16:06:19.758Z,17.71
2023-03-04T16:08:59.711Z,17.98
2023-03-04T16:11:48.624Z,17.41
2023-03-04T16:14:27.884Z,17.51
2023-03-04T16:17:06.985Z,18.07
2023-03-04T16:19:51.920Z,17.41
2023-03-04T16:22:37.164Z,17.69
2023-03-04T16:25:19.162Z,17.36
2023-03-04T16:28:00.044Z,18.23
2023-03-04T16:30:39.270Z,41.41
2023-03-04T16:33:18.394Z,25.60
2023-03-04T16:36:04.896Z,20.62
2023-03-04T16:38:44.110Z,18.37
2023-03-04T16:41:27.327Z,17.82
2023-03-04T16:44:10.303Z,18.43
2023-03-04T16:46:49.645Z,17.83
2023-03-04T16:49:31.325Z,19.60
2023-03-04T16:52:25.078Z,17.69
2023-03-04T16:55:05.417Z,16.47
2023-03-04T16:57:44.501Z,16.34
2023-03-04T17:00:26.773Z,15.70
2023-03-04T17:03:07.734Z,15.96
2023-03-04T17:05:48.794Z,15.60
2023-03-04T17:08:32.974Z,16.21
2023-03-04T17:11:12.457Z,16.94
2023-03-04T17:13:51.550Z,17.06
2023-03-04T17:16:30.798Z,16.76
2023-03-04T17:19:09.947Z,17.78
2023-03-04T17:21:49.041Z,16.83
2023-03-04T17:24:33.789Z,18.34
2023-03-04T17:27:12.848Z,18.70
2023-03-04T17:29:54.175Z,17.94
2023-03-04T17:32:33.674Z,17.29
2023-03-04T17:35:13.868Z,18.19
2023-03-04T17:37:52.943Z,18.10
2023-03-04T17:40:37.100Z,17.49
2023-03-04T17:43:17.388Z,18.10
2023-03-04T17:45:56.419Z,19.84
2023-03-04T17:48:35.485Z,20.19
2023-03-04T17:51:15.665Z,20.16
2023-03-04T17:53:54.814Z,20.52
2023-03-04T17:56:40.503Z,38.99
2023-03-04T17:59:22.385Z,35.47
2023-03-04T18:02:01.497Z,21.24
2023-03-04T18:04:42.036Z,20.93
2023-03-04T18:07:21.076Z,22.44
2023-03-04T18:10:00.378Z,23.75
2023-03-04T18:12:44.629Z,24.17
2023-03-04T18:15:23.958Z,18.70
2023-03-04T18:18:03.060Z,20.09
2023-03-04T18:20:42.179Z,20.49
2023-03-04T18:23:21.220Z,22.04
2023-03-04T18:26:00.498Z,20.07
2023-03-04T18:28:45.038Z,18.45
2023-03-04T18:31:26.536Z,17.95
2023-03-04T18:34:07.985Z,19.65
2023-03-04T18:36:48.697Z,18.03
2023-03-04T18:39:27.747Z,20.60
2023-03-04T18:42:06.787Z,21.85
2023-03-04T18:44:51.087Z,24.45
2023-03-04T18:47:31.078Z,26.80
2023-03-04T18:50:11.012Z,27.45
2023-03-04T18:52:50.900Z,23.70
2023-03-04T18:55:31.569Z,28.60
2023-03-04T18:58:11.115Z,21.77
2023-03-04T19:00:55.822Z,20.41
2023-03-04T19:03:38.075Z,24.23
2023-03-04T19:06:17.476Z,21.72
2023-03-04T19:08:56.780Z,24.12
2023-03-04T19:11:35.964Z,22.98
2023-03-04T19:14:15.079Z,32.35
2023-03-04T19:16:59.209Z,28.17
2023-03-04T19:19:38.257Z,26.74
2023-03-04T19:22:17.390Z,28.34
2023-03-04T19:24:56.431Z,35.89
2023-03-04T19:27:35.661Z,47.26
2023-03-04T19:30:16.233Z,48.81
2023-03-04T19:33:01.176Z,44.64
2023-03-04T19:35:40.762Z,36.35
2023-03-04T19:38:20.003Z,40.83
2023-03-04T19:40:59.041Z,33.91
2023-03-04T19:43:39.706Z,33.16
2023-03-04T19:46:19.809Z,33.36
2023-03-04T19:49:04.168Z,27.38
2023-03-04T19:51:43.753Z,26.22
2023-03-04T19:54:23.100Z,25.69
2023-03-04T19:57:02.285Z,26.12
2023-03-04T19:59:42.148Z,23.51
2023-03-04T20:02:21.191Z,24.28
2023-03-04T20:05:05.844Z,24.32
2023-03-04T20:07:44.916Z,24.38
2023-03-04T20:10:24.869Z,22.68
2023-03-04T20:13:03.951Z,24.44
2023-03-04T20:15:43.619Z,28.56
2023-03-04T20:18:22.739Z,32.69
2023-03-04T20:21:08.887Z,38.58
2023-03-04T20:23:47.935Z,42.42
2023-03-04T20:26:27.118Z,36.14
2023-03-04T20:29:06.748Z,33.14
2023-03-04T20:31:47.288Z,33.46
2023-03-04T20:34:27.954Z,32.27
2023-03-04T20:37:12.829Z,31.02
2023-03-04T20:39:52.202Z,28.32
2023-03-04T20:42:31.377Z,27.41
2023-03-04T20:45:10.921Z,26.90
2023-03-04T20:47:50.897Z,25.41
2023-03-04T20:50:30.041Z,25.42
2023-03-04T20:53:14.740Z,23.87
2023-03-04T20:55:53.811Z,22.80
2023-03-04T20:58:32.972Z,22.07
2023-03-04T21:01:12.174Z,21.60
2023-03-04T21:03:51.719Z,20.78
2023-03-04T21:06:31.146Z,25.42
2023-03-04T21:09:18.451Z,27.81
2023-03-04T21:11:59.756Z,30.92
2023-03-04T21:14:40.301Z,30.22
2023-03-04T21:17:20.247Z,30.50
2023-03-04T21:19:59.280Z,29.47
2023-03-04T21:22:38.379Z,30.22
2023-03-04T21:25:24.111Z,26.94
2023-03-04T21:28:03.231Z,24.85
2023-03-04T21:30:42.385Z,24.16
2023-03-04T21:33:26.782Z,25.89
2023-03-04T21:36:05.855Z,25.27
2023-03-04T21:38:44.962Z,23.80
2023-03-04T21:41:32.102Z,23.39
2023-03-04T21:44:22.667Z,24.42
2023-03-04T21:47:08.388Z,25.30
2023-03-04T21:49:47.582Z,24.64
2023-03-04T21:52:28.212Z,24.65
2023-03-04T21:55:07.266Z,25.94
2023-03-04T21:57:51.370Z,25.56
2023-03-04T22:00:31.207Z,24.82
2023-03-04T22:03:10.301Z,25.43
2023-03-04T22:05:50.700Z,25.38
2023-03-04T22:08:29.740Z,29.43
2023-03-04T22:11:11.597Z,28.42
2023-03-04T22:13:59.407Z,27.11
2023-03-04T22:16:55.379Z,29.24
2023-03-04T22:19:38.481Z,29.09
2023-03-04T22:22:20.609Z,28.13
2023-03-04T22:25:01.211Z,28.19
2023-03-04T22:27:40.258Z,26.76
2023-03-04T22:30:25.254Z,26.37
2023-03-04T22:33:04.345Z,24.55
2023-03-04T22:35:46.954Z,24.57
2023-03-04T22:38:26.599Z,23.28
2023-03-04T22:41:06.657Z,23.84
2023-03-04T22:43:45.755Z,24.47
2023-03-04T22:46:32.300Z,24.28
2023-03-04T22:49:14.917Z,23.80
2023-03-04T22:51:53.991Z,23.31
2023-03-04T22:54:33.465Z,24.52
2023-03-04T22:57:12.592Z,22.97
2023-03-04T22:59:51.677Z,23.97
2023-03-04T23:02:36.672Z,24.99
2023-03-04T23:05:17.078Z,23.95
2023-03-04T23:07:57.242Z,24.43
2023-03-04T23:10:36.333Z,25.68
2023-03-04T23:13:15.498Z,25.36
2023-03-04T23:15:54.649Z,26.52
2023-03-04T23:18:39.070Z,28.62
2023-03-04T23:21:20.967Z,31.83
2023-03-04T23:24:03.224Z,29.79
2023-03-04T23:26:46.182Z,26.27
2023-03-04T23:29:25.214Z,24.58
2023-03-04T23:32:04.414Z,24.66
2023-03-04T23:34:53.971Z,23.88
2023-03-04T23:37:33.243Z,27.04
2023-03-04T23:40:13.356Z,30.47
2023-03-04T23:42:52.476Z,27.36
2023-03-04T23:45:31.578Z,24.30
2023-03-04T23:48:10.947Z,24.65
2023-03-04T23:51:00.192Z,23.94
2023-03-04T23:53:40.070Z,25.53
2023-03-04T23:56:22.044Z,25.09
2023-03-04T23:59:02.336Z,26.11
